Time;durP1;ratioP1;P1;durP2;ratioP2;P2;SDS_P1;SDS_P2;PMS_P1;PMS_P2;Temp;Humidity;BMP_temperature;BMP_pressure;BME280_temperature;BME280_humidity;BME280_pressure;Samples;Min_cycle;Max_cycle;Signal;HPM_P1;HPM_P2
2022/07/22 00:01:38;;;;;;;;;;;;;;;;;;5033212;28;20525;-68
2022/07/22 00:04:03;;;;;;;;;;;;;;;;;;5030705;28;20344;-68
2022/07/22 00:06:29;;;;;;;;;;;;;;;;;;5033869;28;19913;-68
2022/07/22 00:08:54;;;;;;;;;;;;;;;;;;5044563;28;19952;-68
2022/07/22 00:11:19;;;;;;;;;;;;;;;;;;5033082;28;19921;-68
2022/07/22 00:13:45;;;;;;;;;;;;;;;;;;5037296;28;21907;-68
2022/07/22 00:16:10;;;;;;;;;;;;;;;;;;5041127;28;19920;-68
2022/07/22 00:18:35;;;;;;;;;;;;;;;;;;5039183;28;19925;-68
2022/07/22 00:21:00;;;;;;;;;;;;;;;;;;5035856;28;20007;-68
2022/07/22 00:23:25;;;;;;;;;;;;;;;;;;5034424;28;20049;-68
2022/07/22 00:25:50;;;;;;;;;;;;;;;;;;5034275;28;20375;-68
2022/07/22 00:28:15;;;;;;;;;;;;;;;;;;5046664;28;19924;-68
2022/07/22 00:30:40;;;;;;;;;;;;;;;;;;5033040;28;19982;-68
2022/07/22 00:33:05;;;;;;;;;;;;;;;;;;5034910;28;19920;-68
2022/07/22 00:35:30;;;;;;;;;;;;;;;;;;5033329;28;19920;-68
2022/07/22 00:37:56;;;;;;;;;;;;;;;;;;5034045;28;19960;-68
2022/07/22 00:40:21;;;;;;;;;;;;;;;;;;5035302;28;19917;-68
2022/07/22 00:42:47;;;;;;;;;;;;;;;;;;5045004;28;19908;-68
2022/07/22 00:45:12;;;;;;;;;;;;;;;;;;5035707;28;19917;-68
2022/07/22 00:47:37;;;;;;;;;;;;;;;;;;5033103;28;19917;-68
2022/07/22 00:50:02;;;;;;;;;;;;;;;;;;5044015;28;19913;-68
2022/07/22 00:52:27;;;;;;;;;;;;;;;;;;5041740;28;19917;-68
2022/07/22 00:54:52;;;;;;;;;;;;;;;;;;5039026;28;20451;-68
2022/07/22 00:57:18;;;;;;;;;;;;;;;;;;5039070;28;19943;-68
2022/07/22 00:59:43;;;;;;;;;;;;;;;;;;5036150;28;20384;-68
2022/07/22 01:02:08;;;;;;;;;;;;;;;;;;5035487;28;19917;-68
2022/07/22 01:04:33;;;;;;;;;;;;;;;;;;5035119;28;19929;-68
2022/07/22 01:06:58;;;;;;;;;;;;;;;;;;5032680;28;19917;-68
2022/07/22 01:09:23;;;;;;;;;;;;;;;;;;5033722;28;19928;-68
2022/07/22 01:11:48;;;;;;;;;;;;;;;;;;5036098;28;19920;-68
2022/07/22 01:14:13;;;;;;;;;;;;;;;;;;5041968;28;20000;-68
2022/07/22 01:16:38;;;;;;;;;;;;;;;;;;5035539;28;19924;-68
2022/07/22 01:19:03;;;;;;;;;;;;;;;;;;5039551;28;19923;-68
2022/07/22 01:21:29;;;;;;;;;;;;;;;;;;5040767;28;20273;-68
2022/07/22 01:23:54;;;;;;;;;;;;;;;;;;5046857;28;19920;-68
2022/07/22 01:26:19;;;;;;;;;;;;;;;;;;5035419;28;20405;-68
2022/07/22 01:28:44;;;;;;;;;;;;;;;;;;5038245;28;19917;-68
2022/07/22 01:31:09;;;;;;;;;;;;;;;;;;5042539;28;19960;-68
2022/07/22 01:33:34;;;;;;;;;;;;;;;;;;5045923;28;19913;-68
2022/07/22 01:35:59;;;;;;;;;;;;;;;;;;5042442;28;20028;-68
2022/07/22 01:38:24;;;;;;;;;;;;;;;;;;5037902;28;20371;-68
2022/07/22 01:40:49;;;;;;;;;;;;;;;;;;5044197;28;19967;-68
2022/07/22 01:43:17;;;;;;;;;;;;;;;;;;5042361;28;19919;-68
2022/07/22 01:45:42;;;;;;;;;;;;;;;;;;5039085;28;19912;-68
2022/07/22 01:48:07;;;;;;;;;;;;;;;;;;5037119;28;19966;-68
2022/07/22 01:50:32;;;;;;;;;;;;;;;;;;5040489;28;19928;-68
2022/07/22 01:52:57;;;;;;;;;;;;;;;;;;5047355;28;19951;-68
2022/07/22 01:55:23;;;;;;;;;;;;;;;;;;5042371;28;19975;-68
2022/07/22 01:57:48;;;;;;;;;;;;;;;;;;5043501;28;19955;-68
2022/07/22 02:00:13;;;;;;;;;;;;;;;;;;5044393;28;20355;-68
2022/07/22 02:02:38;;;;;;;;;;;;;;;;;;5041266;28;19980;-68
2022/07/22 02:05:03;;;;;;;;;;;;;;;;;;5041098;28;19945;-68
2022/07/22 02:07:28;;;;;;;;;;;;;;;;;;5042918;28;19916;-68
2022/07/22 02:09:53;;;;;;;;;;;;;;;;;;5037751;28;19952;-68
2022/07/22 02:12:18;;;;;;;;;;;;;;;;;;5038930;28;19916;-68
2022/07/22 02:14:43;;;;;;;;;;;;;;;;;;5040472;28;20286;-68
2022/07/22 02:17:09;;;;;;;;;;;;;;;;;;5042917;28;19925;-68
2022/07/22 02:19:34;;;;;;;;;;;;;;;;;;5042617;28;19916;-68
2022/07/22 02:21:59;;;;;;;;;;;;;;;;;;5044488;28;19920;-68
2022/07/22 02:24:24;;;;;;;;;;;;;;;;;;5035617;28;20019;-68
2022/07/22 02:26:49;;;;;;;;;;;;;;;;;;5035680;28;19964;-68
2022/07/22 02:29:14;;;;;;;;;;;;;;;;;;5040696;28;19921;-68
2022/07/22 02:31:39;;;;;;;;;;;;;;;;;;5044074;28;19913;-68
2022/07/22 02:34:05;;;;;;;;;;;;;;;;;;5036124;28;19963;-68
2022/07/22 02:36:30;;;;;;;;;;;;;;;;;;5040741;28;19924;-68
2022/07/22 02:38:55;;;;;;;;;;;;;;;;;;5034538;28;20415;-68
2022/07/22 02:41:20;;;;;;;;;;;;;;;;;;5035196;28;19920;-68
2022/07/22 02:43:45;;;;;;;;;;;;;;;;;;5032728;28;19917;-68
2022/07/22 02:46:10;;;;;;;;;;;;;;;;;;5038744;28;19923;-68
2022/07/22 02:48:35;;;;;;;;;;;;;;;;;;5034604;28;19923;-68
2022/07/22 02:51:00;;;;;;;;;;;;;;;;;;5039323;28;20425;-68
2022/07/22 02:53:25;;;;;;;;;;;;;;;;;;5040356;28;19955;-69
2022/07/22 02:55:50;;;;;;;;;;;;;;;;;;5040358;28;19919;-68
2022/07/22 02:58:16;;;;;;;;;;;;;;;;;;5036081;28;19920;-68
2022/07/22 03:00:41;;;;;;;;;;;;;;;;;;5036195;28;19913;-68
2022/07/22 03:03:06;;;;;;;;;;;;;;;;;;5038140;28;19917;-68
2022/07/22 03:05:31;;;;;;;;;;;;;;;;;;5037404;28;19917;-68
2022/07/22 03:07:56;;;;;;;;;;;;;;;;;;5036465;28;20379;-68
2022/07/22 03:10:21;;;;;;;;;;;;;;;;;;5031465;28;19960;-68
2022/07/22 03:12:46;;;;;;;;;;;;;;;;;;5039504;28;20012;-68
2022/07/22 03:15:11;;;;;;;;;;;;;;;;;;5032789;28;19924;-68
2022/07/22 03:17:37;;;;;;;;;;;;;;;;;;5039387;28;19923;-68
2022/07/22 03:20:02;;;;;;;;;;;;;;;;;;5034218;28;19955;-68
2022/07/22 03:22:27;;;;;;;;;;;;;;;;;;5035137;28;19924;-68
2022/07/22 03:24:52;;;;;;;;;;;;;;;;;;5033163;28;19925;-68
2022/07/22 03:27:17;;;;;;;;;;;;;;;;;;5040439;28;20439;-68
2022/07/22 03:29:42;;;;;;;;;;;;;;;;;;5036969;28;19917;-68
2022/07/22 03:32:07;;;;;;;;;;;;;;;;;;5034241;28;19960;-68
2022/07/22 03:34:33;;;;;;;;;;;;;;;;;;5027377;28;19917;-68
2022/07/22 03:36:58;;;;;;;;;;;;;;;;;;5036422;28;19912;-68
2022/07/22 03:39:23;;;;;;;;;;;;;;;;;;5032618;28;19921;-68
2022/07/22 03:41:48;;;;;;;;;;;;;;;;;;5037709;28;20263;-68
2022/07/22 03:44:13;;;;;;;;;;;;;;;;;;5032598;28;19975;-68
2022/07/22 03:46:38;;;;;;;;;;;;;;;;;;5038107;28;19924;-68
2022/07/22 03:49:03;;;;;;;;;;;;;;;;;;5038424;28;20347;-68
2022/07/22 03:51:29;;;;;;;;;;;;;;;;;;5035769;28;19963;-68
2022/07/22 03:53:54;;;;;;;;;;;;;;;;;;5039317;28;19932;-68
2022/07/22 03:56:19;;;;;;;;;;;;;;;;;;5034008;28;19952;-68
2022/07/22 03:58:44;;;;;;;;;;;;;;;;;;5041622;28;19919;-68
2022/07/22 04:01:09;;;;;;;;;;;;;;;;;;5041648;28;19924;-68
2022/07/22 04:03:34;;;;;;;;;;;;;;;;;;5048140;28;19916;-68
2022/07/22 04:05:59;;;;;;;;;;;;;;;;;;5039142;28;19913;-68
2022/07/22 04:08:24;;;;;;;;;;;;;;;;;;5034891;28;20051;-68
2022/07/22 04:10:49;;;;;;;;;;;;;;;;;;5033176;28;19927;-68
2022/07/22 04:13:14;;;;;;;;;;;;;;;;;;5037032;28;19919;-68
2022/07/22 04:15:40;;;;;;;;;;;;;;;;;;5044183;28;19919;-68
2022/07/22 04:18:05;;;;;;;;;;;;;;;;;;5044872;28;20291;-68
2022/07/22 04:20:30;;;;;;;;;;;;;;;;;;5039486;28;19913;-68
2022/07/22 04:22:55;;;;;;;;;;;;;;;;;;5030548;28;19916;-68
2022/07/22 04:25:20;;;;;;;;;;;;;;;;;;5034427;28;21027;-68
2022/07/22 04:27:45;;;;;;;;;;;;;;;;;;5033107;28;19952;-68
2022/07/22 04:30:10;;;;;;;;;;;;;;;;;;5034508;28;19921;-68
2022/07/22 04:32:36;;;;;;;;;;;;;;;;;;5033727;28;20377;-68
2022/07/22 04:35:01;;;;;;;;;;;;;;;;;;5035536;28;19920;-68
2022/07/22 04:37:26;;;;;;;;;;;;;;;;;;5035165;28;19928;-68
2022/07/22 04:39:51;;;;;;;;;;;;;;;;;;5029461;28;19928;-68
2022/07/22 04:42:16;;;;;;;;;;;;;;;;;;5034967;28;20015;-68
2022/07/22 04:44:44;;;;;;;;;;;;;;;;;;5036342;28;20024;-68
2022/07/22 04:47:09;;;;;;;;;;;;;;;;;;5034447;28;19999;-67
2022/07/22 04:49:34;;;;;;;;;;;;;;;;;;5032255;28;20190;-68
2022/07/22 04:51:59;;;;;;;;;;;;;;;;;;5032272;28;19921;-68
2022/07/22 04:54:24;;;;;;;;;;;;;;;;;;5036893;28;20295;-68
2022/07/22 04:56:49;;;;;;;;;;;;;;;;;;5033868;28;19952;-68
2022/07/22 04:59:15;;;;;;;;;;;;;;;;;;5037332;28;19916;-68
2022/07/22 05:01:40;;;;;;;;;;;;;;;;;;5029966;28;19917;-68
2022/07/22 05:04:05;;;;;;;;;;;;;;;;;;5038781;28;19991;-68
2022/07/22 05:06:30;;;;;;;;;;;;;;;;;;5035050;28;19927;-68
2022/07/22 05:08:55;;;;;;;;;;;;;;;;;;5035510;28;19999;-68
2022/07/22 05:11:20;;;;;;;;;;;;;;;;;;5035475;28;19925;-69
2022/07/22 05:13:48;;;;;;;;;;;;;;;;;;5041507;28;21265;-68
2022/07/22 05:16:13;;;;;;;;;;;;;;;;;;5039834;28;20012;-69
2022/07/22 05:18:38;;;;;;;;;;;;;;;;;;5040039;28;19917;-69
2022/07/22 05:21:03;;;;;;;;;;;;;;;;;;5037384;28;19932;-69
2022/07/22 05:23:28;;;;;;;;;;;;;;;;;;5036406;28;19940;-68
2022/07/22 05:25:53;;;;;;;;;;;;;;;;;;5033051;28;20116;-68
2022/07/22 05:28:19;;;;;;;;;;;;;;;;;;5034058;28;19956;-68
2022/07/22 05:30:44;;;;;;;;;;;;;;;;;;5035310;28;19944;-69
2022/07/22 05:33:09;;;;;;;;;;;;;;;;;;5037016;28;19971;-69
2022/07/22 05:35:34;;;;;;;;;;;;;;;;;;5033103;28;20017;-69
2022/07/22 05:37:59;;;;;;;;;;;;;;;;;;5036613;28;19917;-69
2022/07/22 05:40:24;;;;;;;;;;;;;;;;;;5037300;28;19921;-69
2022/07/22 05:42:49;;;;;;;;;;;;;;;;;;5034588;28;19917;-69
2022/07/22 05:45:15;;;;;;;;;;;;;;;;;;5035962;28;19917;-69
2022/07/22 05:47:40;;;;;;;;;;;;;;;;;;5034955;28;19917;-69
2022/07/22 05:50:05;;;;;;;;;;;;;;;;;;5034686;28;19913;-70
2022/07/22 05:52:30;;;;;;;;;;;;;;;;;;5032372;28;20020;-69
2022/07/22 05:54:55;;;;;;;;;;;;;;;;;;5035324;28;19917;-69
2022/07/22 05:57:20;;;;;;;;;;;;;;;;;;5045283;28;19952;-70
2022/07/22 05:59:45;;;;;;;;;;;;;;;;;;5032084;28;19920;-69
2022/07/22 06:02:10;;;;;;;;;;;;;;;;;;5033606;28;20035;-70
2022/07/22 06:04:35;;;;;;;;;;;;;;;;;;5035725;28;19920;-69
2022/07/22 06:07:01;;;;;;;;;;;;;;;;;;5034868;28;20040;-70
2022/07/22 06:09:26;;;;;;;;;;;;;;;;;;5034091;28;19940;-69
2022/07/22 06:11:51;;;;;;;;;;;;;;;;;;5031890;28;19924;-69
2022/07/22 06:14:16;;;;;;;;;;;;;;;;;;5039181;28;19920;-71
2022/07/22 06:16:41;;;;;;;;;;;;;;;;;;5033863;28;19913;-70
2022/07/22 06:19:06;;;;;;;;;;;;;;;;;;5040687;28;19917;-69
2022/07/22 06:21:31;;;;;;;;;;;;;;;;;;5038871;28;19921;-69
2022/07/22 06:23:57;;;;;;;;;;;;;;;;;;5040074;28;19920;-69
2022/07/22 06:26:22;;;;;;;;;;;;;;;;;;5041197;28;19916;-69
2022/07/22 06:28:47;;;;;;;;;;;;;;;;;;5037440;28;19909;-69
2022/07/22 06:31:12;;;;;;;;;;;;;;;;;;5041429;28;19924;-69
2022/07/22 06:33:38;;;;;;;;;;;;;;;;;;5035267;28;19987;-70
2022/07/22 06:36:03;;;;;;;;;;;;;;;;;;5036094;28;19916;-69
2022/07/22 06:38:28;;;;;;;;;;;;;;;;;;5042724;28;20268;-69
2022/07/22 06:40:53;;;;;;;;;;;;;;;;;;5034923;28;19953;-69
2022/07/22 06:43:18;;;;;;;;;;;;;;;;;;5043616;28;19912;-69
2022/07/22 06:45:43;;;;;;;;;;;;;;;;;;5038837;28;20126;-69
2022/07/22 06:48:08;;;;;;;;;;;;;;;;;;5041029;28;19917;-70
2022/07/22 06:50:33;;;;;;;;;;;;;;;;;;5040058;28;19917;-68
2022/07/22 06:52:59;;;;;;;;;;;;;;;;;;5037271;28;19917;-69
2022/07/22 06:55:24;;;;;;;;;;;;;;;;;;5045943;28;19917;-68
2022/07/22 06:57:49;;;;;;;;;;;;;;;;;;5035892;28;19924;-68
2022/07/22 07:00:14;;;;;;;;;;;;;;;;;;5034489;28;19924;-69
2022/07/22 07:02:39;;;;;;;;;;;;;;;;;;5040354;28;20318;-68
2022/07/22 07:05:04;;;;;;;;;;;;;;;;;;5034671;28;20425;-69
2022/07/22 07:07:29;;;;;;;;;;;;;;;;;;5034238;28;19966;-69
2022/07/22 07:09:54;;;;;;;;;;;;;;;;;;5034805;28;19928;-69
2022/07/22 07:12:19;;;;;;;;;;;;;;;;;;5034593;28;19939;-69
2022/07/22 07:14:44;;;;;;;;;;;;;;;;;;5035884;28;20418;-69
2022/07/22 07:17:10;;;;;;;;;;;;;;;;;;5035324;28;19951;-68
2022/07/22 07:19:35;;;;;;;;;;;;;;;;;;5044511;28;19921;-69
2022/07/22 07:22:00;;;;;;;;;;;;;;;;;;5038254;28;19932;-70
2022/07/22 07:24:25;;;;;;;;;;;;;;;;;;5041114;28;20028;-69
2022/07/22 07:26:50;;;;;;;;;;;;;;;;;;5032413;28;19928;-69
2022/07/22 07:29:16;;;;;;;;;;;;;;;;;;5038693;28;20446;-69
2022/07/22 07:31:41;;;;;;;;;;;;;;;;;;5032141;28;19921;-69
2022/07/22 07:34:06;;;;;;;;;;;;;;;;;;5035711;28;19963;-69
2022/07/22 07:36:31;;;;;;;;;;;;;;;;;;5036184;28;20732;-69
2022/07/22 07:38:56;;;;;;;;;;;;;;;;;;5040176;28;19924;-69
2022/07/22 07:41:21;;;;;;;;;;;;;;;;;;5031908;28;19928;-69
2022/07/22 07:43:46;;;;;;;;;;;;;;;;;;5035123;28;19923;-70
2022/07/22 07:46:11;;;;;;;;;;;;;;;;;;5040206;28;19924;-70
2022/07/22 07:48:36;;;;;;;;;;;;;;;;;;5034269;28;19919;-70
2022/07/22 07:51:02;;;;;;;;;;;;;;;;;;5037331;28;19921;-70
2022/07/22 07:53:27;;;;;;;;;;;;;;;;;;5035442;28;19917;-70
2022/07/22 07:55:52;;;;;;;;;;;;;;;;;;5035107;28;19921;-69
2022/07/22 07:58:17;;;;;;;;;;;;;;;;;;5033427;28;19920;-69
2022/07/22 08:00:42;;;;;;;;;;;;;;;;;;5042278;28;19924;-69
2022/07/22 08:03:07;;;;;;;;;;;;;;;;;;5037327;28;19913;-69
2022/07/22 08:05:32;;;;;;;;;;;;;;;;;;5035204;28;19916;-69
2022/07/22 08:07:57;;;;;;;;;;;;;;;;;;5034395;28;20003;-69
2022/07/22 08:10:23;;;;;;;;;;;;;;;;;;5035786;28;19965;-69
2022/07/22 08:12:48;;;;;;;;;;;;;;;;;;5036244;28;19917;-69
2022/07/22 08:15:13;;;;;;;;;;;;;;;;;;5031380;28;19994;-69
2022/07/22 08:17:38;;;;;;;;;;;;;;;;;;5034945;28;20483;-69
2022/07/22 08:20:03;;;;;;;;;;;;;;;;;;5045936;28;19917;-69
2022/07/22 08:22:28;;;;;;;;;;;;;;;;;;5035167;28;19916;-69
2022/07/22 08:24:54;;;;;;;;;;;;;;;;;;5031534;28;19921;-69
2022/07/22 08:27:19;;;;;;;;;;;;;;;;;;5040138;28;19916;-69
2022/07/22 08:29:44;;;;;;;;;;;;;;;;;;5036128;28;19920;-69
2022/07/22 08:32:09;;;;;;;;;;;;;;;;;;5031540;28;19964;-69
2022/07/22 08:34:34;;;;;;;;;;;;;;;;;;5036475;28;19926;-69
2022/07/22 08:36:59;;;;;;;;;;;;;;;;;;5035906;28;19912;-69
2022/07/22 08:39:24;;;;;;;;;;;;;;;;;;5035387;28;19924;-68
2022/07/22 08:41:49;;;;;;;;;;;;;;;;;;5038458;28;20735;-69
2022/07/22 08:44:15;;;;;;;;;;;;;;;;;;5038938;28;21654;-69
2022/07/22 08:46:40;;;;;;;;;;;;;;;;;;5035026;28;20004;-69
2022/07/22 08:49:06;;;;;;;;;;;;;;;;;;5033876;28;19917;-69
2022/07/22 08:51:31;;;;;;;;;;;;;;;;;;5032073;28;20008;-69
2022/07/22 08:53:56;;;;;;;;;;;;;;;;;;5035380;28;20027;-68
2022/07/22 08:56:21;;;;;;;;;;;;;;;;;;5035357;28;19921;-70
2022/07/22 08:58:46;;;;;;;;;;;;;;;;;;5033581;28;19960;-68
2022/07/22 09:01:11;;;;;;;;;;;;;;;;;;5039009;28;19964;-69
2022/07/22 09:03:37;;;;;;;;;;;;;;;;;;5034414;28;19928;-69
2022/07/22 09:06:02;;;;;;;;;;;;;;;;;;5036793;28;19921;-69
2022/07/22 09:08:27;;;;;;;;;;;;;;;;;;5036286;28;20379;-69
2022/07/22 09:10:52;;;;;;;;;;;;;;;;;;5031587;28;20374;-68
2022/07/22 09:13:18;;;;;;;;;;;;;;;;;;5036351;28;19979;-68
2022/07/22 09:15:44;;;;;;;;;;;;;;;;;;5033921;28;20403;-68
2022/07/22 09:18:09;;;;;;;;;;;;;;;;;;5032420;28;19917;-68
2022/07/22 09:20:34;;;;;;;;;;;;;;;;;;5030322;28;20424;-68
2022/07/22 09:22:59;;;;;;;;;;;;;;;;;;5032960;28;20427;-68
2022/07/22 09:25:25;;;;;;;;;;;;;;;;;;5027993;28;19917;-68
2022/07/22 09:27:51;;;;;;;;;;;;;;;;;;5032944;28;19917;-69
2022/07/22 09:30:16;;;;;;;;;;;;;;;;;;5034945;28;20344;-69
2022/07/22 09:32:41;;;;;;;;;;;;;;;;;;5033108;28;19990;-69
2022/07/22 09:35:06;;;;;;;;;;;;;;;;;;5032606;28;19999;-68
2022/07/22 09:37:32;;;;;;;;;;;;;;;;;;5033374;28;19999;-69
2022/07/22 09:39:57;;;;;;;;;;;;;;;;;;5038225;28;20363;-69
2022/07/22 09:42:22;;;;;;;;;;;;;;;;;;5035652;28;19920;-69
2022/07/22 09:44:47;;;;;;;;;;;;;;;;;;5031009;28;19920;-68
2022/07/22 09:47:12;;;;;;;;;;;;;;;;;;5030603;28;20004;-68
2022/07/22 09:49:38;;;;;;;;;;;;;;;;;;5038741;28;20218;-68
2022/07/22 09:52:04;;;;;;;;;;;;;;;;;;5040774;28;19923;-68
2022/07/22 09:54:29;;;;;;;;;;;;;;;;;;5036827;28;19952;-68
2022/07/22 09:56:54;;;;;;;;;;;;;;;;;;5040548;28;19913;-69
2022/07/22 09:59:19;;;;;;;;;;;;;;;;;;5045429;28;20383;-68
2022/07/22 10:01:44;;;;;;;;;;;;;;;;;;5036576;28;19913;-69
2022/07/22 10:04:09;;;;;;;;;;;;;;;;;;5034331;28;20323;-67
2022/07/22 10:06:34;;;;;;;;;;;;;;;;;;5036652;28;19916;-67
2022/07/22 10:08:59;;;;;;;;;;;;;;;;;;5042466;28;19940;-67
2022/07/22 10:11:24;;;;;;;;;;;;;;;;;;5040131;28;19921;-67
2022/07/22 10:13:49;;;;;;;;;;;;;;;;;;5045443;28;19917;-67
2022/07/22 10:16:14;;;;;;;;;;;;;;;;;;5034548;28;20512;-68
2022/07/22 10:18:40;;;;;;;;;;;;;;;;;;5042330;28;19917;-71
2022/07/22 10:21:05;;;;;;;;;;;;;;;;;;5038446;28;19940;-72
2022/07/22 10:23:30;;;;;;;;;;;;;;;;;;5034548;28;20583;-71
2022/07/22 10:25:56;;;;;;;;;;;;;;;;;;5036935;28;19979;-72
2022/07/22 10:28:21;;;;;;;;;;;;;;;;;;5041541;28;19916;-73
2022/07/22 10:30:46;;;;;;;;;;;;;;;;;;5037767;28;19954;-74
2022/07/22 10:33:11;;;;;;;;;;;;;;;;;;5036366;28;20449;-74
2022/07/22 10:35:37;;;;;;;;;;;;;;;;;;5043619;28;19917;-74
2022/07/22 10:38:02;;;;;;;;;;;;;;;;;;5037864;28;19921;-73
2022/07/22 10:40:28;;;;;;;;;;;;;;;;;;5035523;28;19917;-73
2022/07/22 10:42:53;;;;;;;;;;;;;;;;;;5035556;28;19990;-74
2022/07/22 10:45:18;;;;;;;;;;;;;;;;;;5037051;28;19921;-74
2022/07/22 10:47:43;;;;;;;;;;;;;;;;;;5038003;28;19944;-75
2022/07/22 10:50:08;;;;;;;;;;;;;;;;;;5038756;28;20302;-72
2022/07/22 10:52:33;;;;;;;;;;;;;;;;;;5031110;28;20394;-74
2022/07/22 10:54:59;;;;;;;;;;;;;;;;;;5030309;28;19924;-74
2022/07/22 10:57:24;;;;;;;;;;;;;;;;;;5034779;28;19931;-74
2022/07/22 10:59:49;;;;;;;;;;;;;;;;;;5034409;28;20014;-74
2022/07/22 11:02:14;;;;;;;;;;;;;;;;;;5040146;28;19917;-73
2022/07/22 11:04:40;;;;;;;;;;;;;;;;;;5039282;28;19952;-74
2022/07/22 11:07:05;;;;;;;;;;;;;;;;;;5043486;28;20011;-73
2022/07/22 11:09:30;;;;;;;;;;;;;;;;;;5034464;28;20387;-73
2022/07/22 11:11:56;;;;;;;;;;;;;;;;;;5038601;28;20592;-73
2022/07/22 11:14:21;;;;;;;;;;;;;;;;;;5033875;28;19920;-74
2022/07/22 11:16:46;;;;;;;;;;;;;;;;;;5036888;28;19917;-72
2022/07/22 11:19:11;;;;;;;;;;;;;;;;;;5040210;28;20339;-71
2022/07/22 11:21:36;;;;;;;;;;;;;;;;;;5038263;28;19913;-71
2022/07/22 11:24:02;;;;;;;;;;;;;;;;;;5036350;28;19960;-74
2022/07/22 11:26:27;;;;;;;;;;;;;;;;;;5040789;28;19920;-74
2022/07/22 11:28:52;;;;;;;;;;;;;;;;;;5032429;28;19971;-73
2022/07/22 11:31:17;;;;;;;;;;;;;;;;;;5041258;28;19927;-74
2022/07/22 11:33:42;;;;;;;;;;;;;;;;;;5042688;28;19974;-74
2022/07/22 11:36:09;;;;;;;;;;;;;;;;;;5034897;28;19913;-74
2022/07/22 11:38:34;;;;;;;;;;;;;;;;;;5037167;28;20028;-72
2022/07/22 11:40:59;;;;;;;;;;;;;;;;;;5037789;28;20043;-74
2022/07/22 11:43:24;;;;;;;;;;;;;;;;;;5037218;28;19978;-72
2022/07/22 11:45:49;;;;;;;;;;;;;;;;;;5033315;28;20484;-70
2022/07/22 11:48:15;;;;;;;;;;;;;;;;;;5035652;28;19971;-74
2022/07/22 11:50:40;;;;;;;;;;;;;;;;;;5034843;28;19912;-74
2022/07/22 11:53:05;;;;;;;;;;;;;;;;;;5036235;28;19920;-74
2022/07/22 11:55:30;;;;;;;;;;;;;;;;;;5029981;28;19921;-72
2022/07/22 11:57:55;;;;;;;;;;;;;;;;;;5039673;28;19921;-72
2022/07/22 12:00:20;;;;;;;;;;;;;;;;;;5033541;28;19939;-73
2022/07/22 12:02:46;;;;;;;;;;;;;;;;;;5040120;28;19923;-72
2022/07/22 12:05:11;;;;;;;;;;;;;;;;;;5036600;28;19917;-70
2022/07/22 12:07:36;;;;;;;;;;;;;;;;;;5032544;28;20291;-71
2022/07/22 12:10:01;;;;;;;;;;;;;;;;;;5033051;28;19956;-70
2022/07/22 12:12:26;;;;;;;;;;;;;;;;;;5032733;28;19951;-70
2022/07/22 12:14:51;;;;;;;;;;;;;;;;;;5033279;28;19923;-71
2022/07/22 12:17:16;;;;;;;;;;;;;;;;;;5029034;28;19917;-71
2022/07/22 12:19:41;;;;;;;;;;;;;;;;;;5034400;28;20419;-72
2022/07/22 12:22:07;;;;;;;;;;;;;;;;;;5032893;28;19928;-71
2022/07/22 12:24:32;;;;;;;;;;;;;;;;;;5031572;28;20206;-71
2022/07/22 12:26:57;;;;;;;;;;;;;;;;;;5027179;28;19988;-71
2022/07/22 12:29:22;;;;;;;;;;;;;;;;;;5030002;28;19924;-71
2022/07/22 12:31:47;;;;;;;;;;;;;;;;;;5033980;28;20681;-70
2022/07/22 12:34:12;;;;;;;;;;;;;;;;;;5031064;28;19920;-71
2022/07/22 12:36:37;;;;;;;;;;;;;;;;;;5039776;28;20359;-73
2022/07/22 12:39:02;;;;;;;;;;;;;;;;;;5036803;28;19921;-73
2022/07/22 12:41:29;;;;;;;;;;;;;;;;;;5031990;28;19916;-73
2022/07/22 12:43:54;;;;;;;;;;;;;;;;;;5037401;28;19916;-76
2022/07/22 12:46:20;;;;;;;;;;;;;;;;;;5037378;28;19967;-73
2022/07/22 12:48:45;;;;;;;;;;;;;;;;;;5028884;28;19917;-72
2022/07/22 12:51:10;;;;;;;;;;;;;;;;;;5035704;28;20359;-73
2022/07/22 12:53:36;;;;;;;;;;;;;;;;;;5034236;28;19999;-72
2022/07/22 12:56:03;;;;;;;;;;;;;;;;;;5036135;28;19920;-73
2022/07/22 12:58:28;;;;;;;;;;;;;;;;;;5034151;28;19993;-71
2022/07/22 13:00:53;;;;;;;;;;;;;;;;;;5033409;28;19917;-72
2022/07/22 13:03:18;;;;;;;;;;;;;;;;;;5038634;28;19921;-70
2022/07/22 13:05:44;;;;;;;;;;;;;;;;;;5029343;28;19913;-72
2022/07/22 13:08:09;;;;;;;;;;;;;;;;;;5032635;28;20044;-73
2022/07/22 13:10:34;;;;;;;;;;;;;;;;;;5022337;28;19964;-73
2022/07/22 13:12:59;;;;;;;;;;;;;;;;;;5030423;28;19921;-73
2022/07/22 13:15:24;;;;;;;;;;;;;;;;;;5032080;28;20020;-72
2022/07/22 13:17:49;;;;;;;;;;;;;;;;;;5030139;28;19917;-73
2022/07/22 13:20:16;;;;;;;;;;;;;;;;;;5031084;28;19921;-71
2022/07/22 13:22:41;;;;;;;;;;;;;;;;;;5027713;28;19963;-73
2022/07/22 13:25:06;;;;;;;;;;;;;;;;;;5032639;28;20024;-73
2022/07/22 13:27:31;;;;;;;;;;;;;;;;;;5034278;28;19917;-72
2022/07/22 13:29:56;;;;;;;;;;;;;;;;;;5039415;28;20372;-73
2022/07/22 13:32:22;;;;;;;;;;;;;;;;;;5030293;28;20265;-73
2022/07/22 13:34:47;;;;;;;;;;;;;;;;;;5032769;28;19921;-72
2022/07/22 13:37:12;;;;;;;;;;;;;;;;;;5038321;28;19917;-73
2022/07/22 13:39:37;;;;;;;;;;;;;;;;;;5026535;28;19921;-72
2022/07/22 13:42:02;;;;;;;;;;;;;;;;;;5032970;28;20313;-74
2022/07/22 13:44:27;;;;;;;;;;;;;;;;;;5030054;28;19951;-74
2022/07/22 13:46:52;;;;;;;;;;;;;;;;;;5030885;28;20620;-70
2022/07/22 13:49:17;;;;;;;;;;;;;;;;;;5037131;28;19956;-67
2022/07/22 13:51:42;;;;;;;;;;;;;;;;;;5039070;28;20363;-68
2022/07/22 13:54:07;;;;;;;;;;;;;;;;;;5039369;28;19947;-69
2022/07/22 13:56:33;;;;;;;;;;;;;;;;;;5039198;28;20363;-68
2022/07/22 13:58:58;;;;;;;;;;;;;;;;;;5037316;28;19939;-68
2022/07/22 14:01:23;;;;;;;;;;;;;;;;;;5037067;28;20267;-69
2022/07/22 14:03:48;;;;;;;;;;;;;;;;;;5032826;28;19917;-68
2022/07/22 14:06:13;;;;;;;;;;;;;;;;;;5042212;28;20007;-69
2022/07/22 14:08:38;;;;;;;;;;;;;;;;;;5036250;28;19917;-69
2022/07/22 14:11:03;;;;;;;;;;;;;;;;;;5037305;28;19953;-69
2022/07/22 14:13:28;;;;;;;;;;;;;;;;;;5031926;28;19917;-69
2022/07/22 14:15:53;;;;;;;;;;;;;;;;;;5027624;28;20304;-69
2022/07/22 14:18:18;;;;;;;;;;;;;;;;;;5034113;28;20009;-69
2022/07/22 14:20:44;;;;;;;;;;;;;;;;;;5034114;28;19917;-69
2022/07/22 14:23:13;;;;;;;;;;;;;;;;;;5035630;28;19920;-69
2022/07/22 14:25:38;;;;;;;;;;;;;;;;;;5030545;28;19924;-70
2022/07/22 14:28:03;;;;;;;;;;;;;;;;;;5034738;28;19917;-69
2022/07/22 14:30:29;;;;;;;;;;;;;;;;;;5030289;28;20489;-68
2022/07/22 14:32:54;;;;;;;;;;;;;;;;;;5030954;28;19917;-68
2022/07/22 14:35:19;;;;;;;;;;;;;;;;;;5033701;28;19921;-68
2022/07/22 14:37:44;;;;;;;;;;;;;;;;;;5040011;28;19920;-69
2022/07/22 14:40:09;;;;;;;;;;;;;;;;;;5037326;28;19917;-68
2022/07/22 14:42:35;;;;;;;;;;;;;;;;;;5045972;28;19913;-68
2022/07/22 14:45:00;;;;;;;;;;;;;;;;;;5040405;28;19932;-68
2022/07/22 14:47:26;;;;;;;;;;;;;;;;;;5042742;28;19916;-69
2022/07/22 14:49:51;;;;;;;;;;;;;;;;;;5044572;28;19920;-71
2022/07/22 14:52:16;;;;;;;;;;;;;;;;;;5040470;28;19921;-69
2022/07/22 14:54:41;;;;;;;;;;;;;;;;;;5040124;28;19917;-69
2022/07/22 14:57:07;;;;;;;;;;;;;;;;;;5037391;28;19996;-69
2022/07/22 14:59:32;;;;;;;;;;;;;;;;;;5039406;28;20310;-69
2022/07/22 15:01:57;;;;;;;;;;;;;;;;;;5037042;28;19916;-70
2022/07/22 15:04:22;;;;;;;;;;;;;;;;;;5035101;28;20857;-70
2022/07/22 15:06:48;;;;;;;;;;;;;;;;;;5035981;28;20000;-71
2022/07/22 15:09:13;;;;;;;;;;;;;;;;;;5046171;28;19927;-70
2022/07/22 15:11:38;;;;;;;;;;;;;;;;;;5039359;28;19925;-69
2022/07/22 15:14:03;;;;;;;;;;;;;;;;;;5036434;28;19917;-69
2022/07/22 15:16:28;;;;;;;;;;;;;;;;;;5041813;28;19913;-69
2022/07/22 15:18:53;;;;;;;;;;;;;;;;;;5042498;28;19940;-69
2022/07/22 15:21:18;;;;;;;;;;;;;;;;;;5037456;28;19936;-69
2022/07/22 15:23:43;;;;;;;;;;;;;;;;;;5040070;28;19921;-69
2022/07/22 15:26:09;;;;;;;;;;;;;;;;;;5033376;28;19921;-69
2022/07/22 15:28:34;;;;;;;;;;;;;;;;;;5032525;28;19917;-69
2022/07/22 15:30:59;;;;;;;;;;;;;;;;;;5040519;28;19923;-69
2022/07/22 15:33:24;;;;;;;;;;;;;;;;;;5041328;28;19995;-69
2022/07/22 15:35:49;;;;;;;;;;;;;;;;;;5036311;28;19917;-70
2022/07/22 15:38:14;;;;;;;;;;;;;;;;;;5037231;28;20421;-69
2022/07/22 15:40:39;;;;;;;;;;;;;;;;;;5034938;28;19923;-70
2022/07/22 15:43:05;;;;;;;;;;;;;;;;;;5035091;28;19913;-68
2022/07/22 15:45:30;;;;;;;;;;;;;;;;;;5037465;28;20008;-69
2022/07/22 15:47:55;;;;;;;;;;;;;;;;;;5035954;28;19936;-68
2022/07/22 15:50:21;;;;;;;;;;;;;;;;;;5036537;28;20252;-68
2022/07/22 15:52:46;;;;;;;;;;;;;;;;;;5034993;28;19962;-68
2022/07/22 15:55:11;;;;;;;;;;;;;;;;;;5033502;28;19917;-68
2022/07/22 16:00:20;;;;;;;;;;;;;;;;;;5033299;28;19920;-69
2022/07/22 16:02:45;;;;;;;;;;;;;;;;;;5035977;28;19913;-68
2022/07/22 16:05:10;;;;;;;;;;;;;;;;;;5040311;28;19917;-68
2022/07/22 16:07:35;;;;;;;;;;;;;;;;;;5036075;28;19919;-68
2022/07/22 16:10:01;;;;;;;;;;;;;;;;;;5030571;28;19917;-69
2022/07/22 16:12:26;;;;;;;;;;;;;;;;;;5030326;28;19960;-68
2022/07/22 16:14:51;;;;;;;;;;;;;;;;;;5032716;28;20572;-68
2022/07/22 16:17:16;;;;;;;;;;;;;;;;;;5032164;28;19945;-69
2022/07/22 16:19:41;;;;;;;;;;;;;;;;;;5031560;28;19923;-69
2022/07/22 16:22:06;;;;;;;;;;;;;;;;;;5033391;28;19917;-68
2022/07/22 16:24:31;;;;;;;;;;;;;;;;;;5038936;28;20330;-68
2022/07/22 16:26:57;;;;;;;;;;;;;;;;;;5034785;28;19917;-68
2022/07/22 16:29:22;;;;;;;;;;;;;;;;;;5038595;28;19913;-69
2022/07/22 16:31:47;;;;;;;;;;;;;;;;;;5035155;28;19920;-68
2022/07/22 16:34:12;;;;;;;;;;;;;;;;;;5041672;28;19927;-68